sensor_id;sensor_type;location;lat;lon;timestamp;temperature;humidity
11320;DHT22;5715;48.234;14.320;2023-01-10T00:02:38;5.60;99.90
11320;DHT22;5715;48.234;14.320;2023-01-10T00:05:26;5.60;99.90
11320;DHT22;5715;48.234;14.320;2023-01-10T00:08:15;5.60;99.90
11320;DHT22;5715;48.234;14.320;2023-01-10T00:11:03;5.60;99.90
11320;DHT22;5715;48.234;14.320;2023-01-10T00:14:11;5.60;99.90
11320;DHT22;5715;48.234;14.320;2023-01-10T00:16:58;5.60;99.90
11320;DHT22;5715;48.234;14.320;2023-01-10T00:19:46;5.60;99.90
11320;DHT22;5715;48.234;14.320;2023-01-10T00:22:33;5.60;99.90
11320;DHT22;5715;48.234;14.320;2023-01-10T00:25:21;5.50;99.90
11320;DHT22;5715;48.234;14.320;2023-01-10T00:28:09;5.40;99.90
11320;DHT22;5715;48.234;14.320;2023-01-10T00:31:06;5.40;99.90
11320;DHT22;5715;48.234;14.320;2023-01-10T00:33:54;5.40;99.90
11320;DHT22;5715;48.234;14.320;2023-01-10T00:36:42;5.30;99.90
11320;DHT22;5715;48.234;14.320;2023-01-10T00:39:31;5.30;99.90
11320;DHT22;5715;48.234;14.320;2023-01-10T00:42:19;5.30;99.90
11320;DHT22;5715;48.234;14.320;2023-01-10T00:45:25;5.30;99.90
11320;DHT22;5715;48.234;14.320;2023-01-10T00:48:14;5.30;99.90
11320;DHT22;5715;48.234;14.320;2023-01-10T00:51:03;5.30;99.90
11320;DHT22;5715;48.234;14.320;2023-01-10T00:53:51;5.30;99.90
11320;DHT22;5715;48.234;14.320;2023-01-10T00:56:39;5.30;99.90
11320;DHT22;5715;48.234;14.320;2023-01-10T00:59:26;5.30;99.90
11320;DHT22;5715;48.234;14.320;2023-01-10T01:02:15;5.20;99.90
11320;DHT22;5715;48.234;14.320;2023-01-10T01:05:03;5.20;99.90
11320;DHT22;5715;48.234;14.320;2023-01-10T01:07:52;5.20;99.90
11320;DHT22;5715;48.234;14.320;2023-01-10T01:10:39;5.20;99.90
11320;DHT22;5715;48.234;14.320;2023-01-10T01:13:27;5.20;99.90
11320;DHT22;5715;48.234;14.320;2023-01-10T01:16:15;5.20;99.90
11320;DHT22;5715;48.234;14.320;2023-01-10T01:19:03;5.20;99.90
11320;DHT22;5715;48.234;14.320;2023-01-10T01:21:51;5.20;99.90
11320;DHT22;5715;48.234;14.320;2023-01-10T01:24:38;5.20;99.90
11320;DHT22;5715;48.234;14.320;2023-01-10T01:27:27;5.10;99.90
11320;DHT22;5715;48.234;14.320;2023-01-10T01:30:15;5.20;99.90
11320;DHT22;5715;48.234;14.320;2023-01-10T01:33:02;5.10;99.90
11320;DHT22;5715;48.234;14.320;2023-01-10T01:35:50;5.10;99.90
11320;DHT22;5715;48.234;14.320;2023-01-10T01:38:39;5.10;99.90
11320;DHT22;5715;48.234;14.320;2023-01-10T01:41:27;5.10;99.90
11320;DHT22;5715;48.234;14.320;2023-01-10T01:44:38;5.10;99.90
11320;DHT22;5715;48.234;14.320;2023-01-10T01:47:28;5.10;99.90
11320;DHT22;5715;48.234;14.320;2023-01-10T01:53:28;5.10;99.90
11320;DHT22;5715;48.234;14.320;2023-01-10T01:56:20;5.10;99.90
11320;DHT22;5715;48.234;14.320;2023-01-10T01:59:13;5.10;99.90
11320;DHT22;5715;48.234;14.320;2023-01-10T02:02:10;5.20;99.90
11320;DHT22;5715;48.234;14.320;2023-01-10T02:05:07;5.20;99.90
11320;DHT22;5715;48.234;14.320;2023-01-10T02:07:59;5.20;99.90
11320;DHT22;5715;48.234;14.320;2023-01-10T02:13:58;5.20;99.90
11320;DHT22;5715;48.234;14.320;2023-01-10T02:16:47;5.20;99.90
11320;DHT22;5715;48.234;14.320;2023-01-10T02:29:52;5.20;99.90
11320;DHT22;5715;48.234;14.320;2023-01-10T02:33:03;5.10;99.90
11320;DHT22;5715;48.234;14.320;2023-01-10T02:45:57;5.20;99.90
11320;DHT22;5715;48.234;14.320;2023-01-10T02:48:48;5.20;99.90
11320;DHT22;5715;48.234;14.320;2023-01-10T02:51:37;5.20;99.90
11320;DHT22;5715;48.234;14.320;2023-01-10T02:54:26;5.20;99.90
11320;DHT22;5715;48.234;14.320;2023-01-10T02:57:46;5.20;99.90
11320;DHT22;5715;48.234;14.320;2023-01-10T03:01:36;5.20;99.90
11320;DHT22;5715;48.234;14.320;2023-01-10T03:08:48;5.20;99.90
11320;DHT22;5715;48.234;14.320;2023-01-10T03:11:22;5.20;99.90
11320;DHT22;5715;48.234;14.320;2023-01-10T03:14:28;5.30;99.90
11320;DHT22;5715;48.234;14.320;2023-01-10T03:17:18;5.30;99.90
11320;DHT22;5715;48.234;14.320;2023-01-10T03:20:09;5.30;99.90
11320;DHT22;5715;48.234;14.320;2023-01-10T03:22:58;5.30;99.90
11320;DHT22;5715;48.234;14.320;2023-01-10T03:25:49;5.40;99.90
11320;DHT22;5715;48.234;14.320;2023-01-10T03:28:50;5.40;99.90
11320;DHT22;5715;48.234;14.320;2023-01-10T03:31:46;5.50;99.90
11320;DHT22;5715;48.234;14.320;2023-01-10T03:34:38;5.50;99.90
11320;DHT22;5715;48.234;14.320;2023-01-10T03:37:57;5.40;99.90
11320;DHT22;5715;48.234;14.320;2023-01-10T03:41:02;5.40;99.90
11320;DHT22;5715;48.234;14.320;2023-01-10T03:47:26;5.50;99.90
11320;DHT22;5715;48.234;14.320;2023-01-10T03:50:23;5.50;99.90
11320;DHT22;5715;48.234;14.320;2023-01-10T03:53:13;5.50;99.90
11320;DHT22;5715;48.234;14.320;2023-01-10T03:56:02;5.40;99.90
11320;DHT22;5715;48.234;14.320;2023-01-10T03:58:50;5.40;99.90
11320;DHT22;5715;48.234;14.320;2023-01-10T04:01:37;5.50;99.90
11320;DHT22;5715;48.234;14.320;2023-01-10T04:04:25;5.40;99.90
11320;DHT22;5715;48.234;14.320;2023-01-10T04:07:13;5.40;99.90
11320;DHT22;5715;48.234;14.320;2023-01-10T04:10:01;5.30;99.90
11320;DHT22;5715;48.234;14.320;2023-01-10T04:12:50;5.30;99.90
11320;DHT22;5715;48.234;14.320;2023-01-10T04:15:37;5.30;99.90
11320;DHT22;5715;48.234;14.320;2023-01-10T04:18:25;5.30;99.90
11320;DHT22;5715;48.234;14.320;2023-01-10T04:21:13;5.20;99.90
11320;DHT22;5715;48.234;14.320;2023-01-10T04:24:00;5.30;99.90
11320;DHT22;5715;48.234;14.320;2023-01-10T04:26:48;5.30;99.90
11320;DHT22;5715;48.234;14.320;2023-01-10T04:29:36;5.30;99.90
11320;DHT22;5715;48.234;14.320;2023-01-10T04:32:23;5.30;99.90
11320;DHT22;5715;48.234;14.320;2023-01-10T04:35:11;5.30;99.90
11320;DHT22;5715;48.234;14.320;2023-01-10T04:37:59;5.30;99.90
11320;DHT22;5715;48.234;14.320;2023-01-10T04:40:54;5.30;99.90
11320;DHT22;5715;48.234;14.320;2023-01-10T04:43:43;5.30;99.90
11320;DHT22;5715;48.234;14.320;2023-01-10T04:46:31;5.30;99.90
11320;DHT22;5715;48.234;14.320;2023-01-10T04:49:18;5.30;99.90
11320;DHT22;5715;48.234;14.320;2023-01-10T04:52:06;5.30;99.90
11320;DHT22;5715;48.234;14.320;2023-01-10T04:54:54;5.30;99.90
11320;DHT22;5715;48.234;14.320;2023-01-10T04:57:41;5.30;99.90
11320;DHT22;5715;48.234;14.320;2023-01-10T05:00:29;5.30;99.90
11320;DHT22;5715;48.234;14.320;2023-01-10T05:03:17;5.20;99.90
11320;DHT22;5715;48.234;14.320;2023-01-10T05:06:06;5.20;99.90
11320;DHT22;5715;48.234;14.320;2023-01-10T05:08:55;5.20;99.90
11320;DHT22;5715;48.234;14.320;2023-01-10T05:11:43;5.30;99.90
11320;DHT22;5715;48.234;14.320;2023-01-10T05:14:31;5.30;99.90
11320;DHT22;5715;48.234;14.320;2023-01-10T05:17:19;5.30;99.90
11320;DHT22;5715;48.234;14.320;2023-01-10T05:20:07;5.30;99.90
11320;DHT22;5715;48.234;14.320;2023-01-10T05:22:56;5.30;99.90
11320;DHT22;5715;48.234;14.320;2023-01-10T05:25:43;5.20;99.90
11320;DHT22;5715;48.234;14.320;2023-01-10T05:28:31;5.30;99.90
11320;DHT22;5715;48.234;14.320;2023-01-10T05:31:19;5.30;99.90
11320;DHT22;5715;48.234;14.320;2023-01-10T05:34:10;5.20;99.90
11320;DHT22;5715;48.234;14.320;2023-01-10T05:36:59;5.30;99.90
11320;DHT22;5715;48.234;14.320;2023-01-10T05:39:47;5.30;99.90
11320;DHT22;5715;48.234;14.320;2023-01-10T05:42:34;5.30;99.90
11320;DHT22;5715;48.234;14.320;2023-01-10T05:45:22;5.30;99.90
11320;DHT22;5715;48.234;14.320;2023-01-10T05:48:09;5.30;99.90
11320;DHT22;5715;48.234;14.320;2023-01-10T05:50:57;5.30;99.90
11320;DHT22;5715;48.234;14.320;2023-01-10T05:53:45;5.30;99.90
11320;DHT22;5715;48.234;14.320;2023-01-10T05:56:34;5.40;99.90
11320;DHT22;5715;48.234;14.320;2023-01-10T05:59:21;5.40;99.90
11320;DHT22;5715;48.234;14.320;2023-01-10T06:02:16;5.40;99.90
11320;DHT22;5715;48.234;14.320;2023-01-10T06:05:05;5.40;99.90
11320;DHT22;5715;48.234;14.320;2023-01-10T06:07:52;5.40;99.90
11320;DHT22;5715;48.234;14.320;2023-01-10T06:10:40;5.40;99.90
11320;DHT22;5715;48.234;14.320;2023-01-10T06:13:28;5.50;99.90
11320;DHT22;5715;48.234;14.320;2023-01-10T06:16:16;5.40;99.90
11320;DHT22;5715;48.234;14.320;2023-01-10T06:19:04;5.40;99.90
11320;DHT22;5715;48.234;14.320;2023-01-10T06:21:52;5.40;99.90
11320;DHT22;5715;48.234;14.320;2023-01-10T06:24:39;5.40;99.90
11320;DHT22;5715;48.234;14.320;2023-01-10T06:27:28;5.40;99.90
11320;DHT22;5715;48.234;14.320;2023-01-10T06:30:16;5.40;99.90
11320;DHT22;5715;48.234;14.320;2023-01-10T06:33:05;5.40;99.90
11320;DHT22;5715;48.234;14.320;2023-01-10T06:35:53;5.30;99.90
11320;DHT22;5715;48.234;14.320;2023-01-10T06:38:44;5.40;99.90
11320;DHT22;5715;48.234;14.320;2023-01-10T06:41:32;5.30;99.90
11320;DHT22;5715;48.234;14.320;2023-01-10T06:44:20;5.30;99.90
11320;DHT22;5715;48.234;14.320;2023-01-10T06:47:07;5.30;99.90
11320;DHT22;5715;48.234;14.320;2023-01-10T06:49:55;5.30;99.90
11320;DHT22;5715;48.234;14.320;2023-01-10T06:52:43;5.30;99.90
11320;DHT22;5715;48.234;14.320;2023-01-10T06:55:31;5.30;99.90
11320;DHT22;5715;48.234;14.320;2023-01-10T06:58:19;5.30;99.90
11320;DHT22;5715;48.234;14.320;2023-01-10T07:01:14;5.30;99.90
11320;DHT22;5715;48.234;14.320;2023-01-10T07:04:04;5.30;99.90
11320;DHT22;5715;48.234;14.320;2023-01-10T07:06:52;5.30;99.90
11320;DHT22;5715;48.234;14.320;2023-01-10T07:09:40;5.30;99.90
11320;DHT22;5715;48.234;14.320;2023-01-10T07:12:27;5.30;99.90
11320;DHT22;5715;48.234;14.320;2023-01-10T07:15:15;5.30;99.90
11320;DHT22;5715;48.234;14.320;2023-01-10T07:18:04;5.30;99.90
11320;DHT22;5715;48.234;14.320;2023-01-10T07:20:51;5.40;99.90
11320;DHT22;5715;48.234;14.320;2023-01-10T07:23:39;5.40;99.90
11320;DHT22;5715;48.234;14.320;2023-01-10T07:26:27;5.40;99.90
11320;DHT22;5715;48.234;14.320;2023-01-10T07:29:15;5.40;99.90
11320;DHT22;5715;48.234;14.320;2023-01-10T07:32:04;5.50;99.90
11320;DHT22;5715;48.234;14.320;2023-01-10T07:34:51;5.50;99.90
11320;DHT22;5715;48.234;14.320;2023-01-10T07:37:39;5.50;99.90
11320;DHT22;5715;48.234;14.320;2023-01-10T07:40:27;5.50;99.90
11320;DHT22;5715;48.234;14.320;2023-01-10T07:43:16;5.50;99.90
11320;DHT22;5715;48.234;14.320;2023-01-10T07:46:05;5.60;99.90
11320;DHT22;5715;48.234;14.320;2023-01-10T07:48:55;5.60;99.90
11320;DHT22;5715;48.234;14.320;2023-01-10T07:51:43;5.60;99.90
11320;DHT22;5715;48.234;14.320;2023-01-10T07:54:31;5.60;99.90
11320;DHT22;5715;48.234;14.320;2023-01-10T07:57:18;5.60;99.90
11320;DHT22;5715;48.234;14.320;2023-01-10T08:00:07;5.60;99.90
11320;DHT22;5715;48.234;14.320;2023-01-10T08:02:55;5.70;99.90
11320;DHT22;5715;48.234;14.320;2023-01-10T08:05:43;5.60;99.90
11320;DHT22;5715;48.234;14.320;2023-01-10T08:08:34;5.60;99.90
11320;DHT22;5715;48.234;14.320;2023-01-10T08:11:22;5.60;99.90
11320;DHT22;5715;48.234;14.320;2023-01-10T08:14:13;5.60;99.90
11320;DHT22;5715;48.234;14.320;2023-01-10T08:17:00;5.70;99.90
11320;DHT22;5715;48.234;14.320;2023-01-10T08:19:48;5.70;99.90
11320;DHT22;5715;48.234;14.320;2023-01-10T08:22:36;5.70;99.90
11320;DHT22;5715;48.234;14.320;2023-01-10T08:25:25;5.80;99.90
11320;DHT22;5715;48.234;14.320;2023-01-10T08:28:14;5.80;99.90
11320;DHT22;5715;48.234;14.320;2023-01-10T08:31:06;5.80;99.90
11320;DHT22;5715;48.234;14.320;2023-01-10T08:33:55;5.80;99.90
11320;DHT22;5715;48.234;14.320;2023-01-10T08:36:43;5.90;99.90
11320;DHT22;5715;48.234;14.320;2023-01-10T08:39:30;5.90;99.90
11320;DHT22;5715;48.234;14.320;2023-01-10T08:42:18;5.80;99.90
11320;DHT22;5715;48.234;14.320;2023-01-10T08:45:07;5.90;99.90
11320;DHT22;5715;48.234;14.320;2023-01-10T08:47:55;6.00;99.90
11320;DHT22;5715;48.234;14.320;2023-01-10T08:50:43;6.00;99.90
11320;DHT22;5715;48.234;14.320;2023-01-10T08:53:31;6.00;99.90
11320;DHT22;5715;48.234;14.320;2023-01-10T08:56:18;6.00;99.90
11320;DHT22;5715;48.234;14.320;2023-01-10T08:59:06;6.10;99.90
11320;DHT22;5715;48.234;14.320;2023-01-10T09:01:54;6.10;99.90
11320;DHT22;5715;48.234;14.320;2023-01-10T09:04:44;6.10;99.90
11320;DHT22;5715;48.234;14.320;2023-01-10T09:07:32;6.20;99.90
11320;DHT22;5715;48.234;14.320;2023-01-10T09:10:20;6.20;99.90
11320;DHT22;5715;48.234;14.320;2023-01-10T09:13:08;6.20;99.90
11320;DHT22;5715;48.234;14.320;2023-01-10T09:15:56;6.20;99.90
11320;DHT22;5715;48.234;14.320;2023-01-10T09:18:44;6.30;99.90
11320;DHT22;5715;48.234;14.320;2023-01-10T09:21:32;6.40;99.90
11320;DHT22;5715;48.234;14.320;2023-01-10T09:24:20;6.50;99.90
11320;DHT22;5715;48.234;14.320;2023-01-10T09:27:07;6.60;99.90
11320;DHT22;5715;48.234;14.320;2023-01-10T09:29:56;6.70;99.90
11320;DHT22;5715;48.234;14.320;2023-01-10T09:32:49;6.70;99.90
11320;DHT22;5715;48.234;14.320;2023-01-10T09:35:39;6.80;99.90
11320;DHT22;5715;48.234;14.320;2023-01-10T09:38:27;6.80;99.90
11320;DHT22;5715;48.234;14.320;2023-01-10T09:48:02;6.80;99.90
11320;DHT22;5715;48.234;14.320;2023-01-10T09:54:28;6.80;99.90
11320;DHT22;5715;48.234;14.320;2023-01-10T09:57:20;6.70;99.90
11320;DHT22;5715;48.234;14.320;2023-01-10T10:00:16;6.80;99.90
11320;DHT22;5715;48.234;14.320;2023-01-10T10:03:25;6.90;99.90
11320;DHT22;5715;48.234;14.320;2023-01-10T10:06:39;6.80;99.90
11320;DHT22;5715;48.234;14.320;2023-01-10T10:09:32;6.90;99.90
11320;DHT22;5715;48.234;14.320;2023-01-10T10:15:42;6.80;99.90
11320;DHT22;5715;48.234;14.320;2023-01-10T10:37:53;6.60;99.90
11320;DHT22;5715;48.234;14.320;2023-01-10T10:40:46;6.50;99.90
11320;DHT22;5715;48.234;14.320;2023-01-10T10:43:36;6.50;99.90
11320;DHT22;5715;48.234;14.320;2023-01-10T10:46:25;6.50;99.90
11320;DHT22;5715;48.234;14.320;2023-01-10T10:49:38;6.40;99.90
11320;DHT22;5715;48.234;14.320;2023-01-10T10:52:43;6.40;99.90
11320;DHT22;5715;48.234;14.320;2023-01-10T10:55:35;6.40;99.90
11320;DHT22;5715;48.234;14.320;2023-01-10T10:58:24;6.40;99.90
11320;DHT22;5715;48.234;14.320;2023-01-10T11:01:15;6.40;99.90
11320;DHT22;5715;48.234;14.320;2023-01-10T11:04:12;6.40;99.90
11320;DHT22;5715;48.234;14.320;2023-01-10T11:07:02;6.40;99.90
11320;DHT22;5715;48.234;14.320;2023-01-10T11:09:51;6.40;99.90
11320;DHT22;5715;48.234;14.320;2023-01-10T11:12:40;6.40;99.90
11320;DHT22;5715;48.234;14.320;2023-01-10T11:15:40;6.40;99.90
11320;DHT22;5715;48.234;14.320;2023-01-10T11:18:33;6.40;99.90
11320;DHT22;5715;48.234;14.320;2023-01-10T11:21:21;6.40;99.90
11320;DHT22;5715;48.234;14.320;2023-01-10T11:24:32;6.40;99.90
11320;DHT22;5715;48.234;14.320;2023-01-10T11:27:24;6.50;99.90
11320;DHT22;5715;48.234;14.320;2023-01-10T11:33:15;6.60;99.90
11320;DHT22;5715;48.234;14.320;2023-01-10T11:36:08;6.60;99.90
11320;DHT22;5715;48.234;14.320;2023-01-10T11:39:03;6.60;99.90
11320;DHT22;5715;48.234;14.320;2023-01-10T11:41:51;6.60;99.90
11320;DHT22;5715;48.234;14.320;2023-01-10T11:44:42;6.60;99.90
11320;DHT22;5715;48.234;14.320;2023-01-10T11:47:29;6.60;99.90
11320;DHT22;5715;48.234;14.320;2023-01-10T11:50:30;6.50;99.90
11320;DHT22;5715;48.234;14.320;2023-01-10T11:56:30;6.60;99.90
11320;DHT22;5715;48.234;14.320;2023-01-10T11:59:21;6.60;99.90
11320;DHT22;5715;48.234;14.320;2023-01-10T12:03:02;6.60;99.90
11320;DHT22;5715;48.234;14.320;2023-01-10T12:05:29;6.60;99.90
11320;DHT22;5715;48.234;14.320;2023-01-10T12:08:30;6.50;99.90
11320;DHT22;5715;48.234;14.320;2023-01-10T12:11:28;6.60;99.90
11320;DHT22;5715;48.234;14.320;2023-01-10T12:14:19;6.50;99.90
11320;DHT22;5715;48.234;14.320;2023-01-10T12:17:23;6.50;99.90
11320;DHT22;5715;48.234;14.320;2023-01-10T12:20:13;6.50;99.90
11320;DHT22;5715;48.234;14.320;2023-01-10T12:23:07;6.50;99.90
11320;DHT22;5715;48.234;14.320;2023-01-10T12:26:03;6.50;99.90
11320;DHT22;5715;48.234;14.320;2023-01-10T12:29:04;6.60;99.90
11320;DHT22;5715;48.234;14.320;2023-01-10T12:31:59;6.60;99.90
11320;DHT22;5715;48.234;14.320;2023-01-10T12:34:59;6.70;99.90
11320;DHT22;5715;48.234;14.320;2023-01-10T12:40:57;6.90;99.90
11320;DHT22;5715;48.234;14.320;2023-01-10T12:43:49;7.00;99.90
11320;DHT22;5715;48.234;14.320;2023-01-10T12:46:59;7.00;99.90
11320;DHT22;5715;48.234;14.320;2023-01-10T12:53:05;7.10;99.90
11320;DHT22;5715;48.234;14.320;2023-01-10T12:56:13;7.10;99.90
11320;DHT22;5715;48.234;14.320;2023-01-10T12:59:38;7.20;99.90
11320;DHT22;5715;48.234;14.320;2023-01-10T13:02:38;7.10;99.90
11320;DHT22;5715;48.234;14.320;2023-01-10T13:05:30;7.10;99.90
11320;DHT22;5715;48.234;14.320;2023-01-10T13:08:22;7.10;99.90
11320;DHT22;5715;48.234;14.320;2023-01-10T13:11:14;7.10;99.90
11320;DHT22;5715;48.234;14.320;2023-01-10T13:14:12;7.00;99.90
11320;DHT22;5715;48.234;14.320;2023-01-10T13:20:27;6.90;99.90
11320;DHT22;5715;48.234;14.320;2023-01-10T13:23:28;6.80;99.90
11320;DHT22;5715;48.234;14.320;2023-01-10T13:26:19;6.70;99.90
11320;DHT22;5715;48.234;14.320;2023-01-10T13:29:10;6.70;99.90
11320;DHT22;5715;48.234;14.320;2023-01-10T13:32:18;6.70;99.90
11320;DHT22;5715;48.234;14.320;2023-01-10T13:35:15;6.70;99.90
11320;DHT22;5715;48.234;14.320;2023-01-10T13:38:14;6.70;99.90
11320;DHT22;5715;48.234;14.320;2023-01-10T13:41:13;6.70;99.90
11320;DHT22;5715;48.234;14.320;2023-01-10T13:44:19;6.70;99.90
11320;DHT22;5715;48.234;14.320;2023-01-10T13:47:08;6.70;99.90
11320;DHT22;5715;48.234;14.320;2023-01-10T13:49:56;6.70;99.90
11320;DHT22;5715;48.234;14.320;2023-01-10T13:52:43;6.70;99.90
11320;DHT22;5715;48.234;14.320;2023-01-10T13:55:54;6.70;99.90
11320;DHT22;5715;48.234;14.320;2023-01-10T13:58:42;6.60;99.90
11320;DHT22;5715;48.234;14.320;2023-01-10T14:01:53;6.60;99.90
11320;DHT22;5715;48.234;14.320;2023-01-10T14:05:15;6.40;99.90
11320;DHT22;5715;48.234;14.320;2023-01-10T14:08:14;6.40;99.90
11320;DHT22;5715;48.234;14.320;2023-01-10T14:11:10;6.30;99.90
11320;DHT22;5715;48.234;14.320;2023-01-10T14:14:00;6.30;99.90
11320;DHT22;5715;48.234;14.320;2023-01-10T14:16:51;6.20;99.90
11320;DHT22;5715;48.234;14.320;2023-01-10T14:19:44;6.30;99.90
11320;DHT22;5715;48.234;14.320;2023-01-10T14:22:36;6.20;99.90
11320;DHT22;5715;48.234;14.320;2023-01-10T14:25:26;6.10;99.90
11320;DHT22;5715;48.234;14.320;2023-01-10T14:28:25;6.10;99.90
11320;DHT22;5715;48.234;14.320;2023-01-10T14:31:21;6.10;99.90
11320;DHT22;5715;48.234;14.320;2023-01-10T14:34:22;6.10;99.90
11320;DHT22;5715;48.234;14.320;2023-01-10T14:40:41;6.00;99.90
11320;DHT22;5715;48.234;14.320;2023-01-10T14:43:39;6.10;99.90
11320;DHT22;5715;48.234;14.320;2023-01-10T14:52:23;5.90;99.90
11320;DHT22;5715;48.234;14.320;2023-01-10T14:55:13;5.90;99.90
11320;DHT22;5715;48.234;14.320;2023-01-10T14:58:16;5.80;99.90
11320;DHT22;5715;48.234;14.320;2023-01-10T15:01:04;5.70;99.90
11320;DHT22;5715;48.234;14.320;2023-01-10T15:03:53;5.70;99.90
11320;DHT22;5715;48.234;14.320;2023-01-10T15:07:10;5.60;99.90
11320;DHT22;5715;48.234;14.320;2023-01-10T15:09:59;5.60;99.90
11320;DHT22;5715;48.234;14.320;2023-01-10T15:13:00;5.60;99.90
11320;DHT22;5715;48.234;14.320;2023-01-10T15:15:49;5.50;99.90
11320;DHT22;5715;48.234;14.320;2023-01-10T15:18:38;5.50;99.90
11320;DHT22;5715;48.234;14.320;2023-01-10T15:21:29;5.40;99.90
11320;DHT22;5715;48.234;14.320;2023-01-10T15:24:32;5.30;99.90
11320;DHT22;5715;48.234;14.320;2023-01-10T15:27:21;5.20;99.90
11320;DHT22;5715;48.234;14.320;2023-01-10T15:30:09;5.20;99.90
11320;DHT22;5715;48.234;14.320;2023-01-10T15:33:03;5.10;99.90
11320;DHT22;5715;48.234;14.320;2023-01-10T15:36:14;5.10;99.90
11320;DHT22;5715;48.234;14.320;2023-01-10T15:39:03;5.00;99.90
11320;DHT22;5715;48.234;14.320;2023-01-10T15:41:59;5.00;99.90
11320;DHT22;5715;48.234;14.320;2023-01-10T15:44:50;4.90;99.90
11320;DHT22;5715;48.234;14.320;2023-01-10T15:47:50;4.90;99.90
11320;DHT22;5715;48.234;14.320;2023-01-10T15:51:12;4.90;99.90
11320;DHT22;5715;48.234;14.320;2023-01-10T16:00:18;4.80;99.90
11320;DHT22;5715;48.234;14.320;2023-01-10T16:03:24;4.80;99.90
11320;DHT22;5715;48.234;14.320;2023-01-10T16:06:33;4.80;99.90
11320;DHT22;5715;48.234;14.320;2023-01-10T16:09:23;4.90;99.90
11320;DHT22;5715;48.234;14.320;2023-01-10T16:12:25;4.90;99.90
11320;DHT22;5715;48.234;14.320;2023-01-10T16:15:40;4.90;99.90
11320;DHT22;5715;48.234;14.320;2023-01-10T16:18:30;4.90;99.90
11320;DHT22;5715;48.234;14.320;2023-01-10T16:21:18;4.90;99.90
11320;DHT22;5715;48.234;14.320;2023-01-10T16:24:23;4.80;99.90
11320;DHT22;5715;48.234;14.320;2023-01-10T16:27:15;4.80;99.90
11320;DHT22;5715;48.234;14.320;2023-01-10T16:30:03;4.70;99.90
11320;DHT22;5715;48.234;14.320;2023-01-10T16:32:52;4.70;99.90
11320;DHT22;5715;48.234;14.320;2023-01-10T16:35:42;4.70;99.90
11320;DHT22;5715;48.234;14.320;2023-01-10T16:38:31;4.70;99.90
11320;DHT22;5715;48.234;14.320;2023-01-10T16:41:19;4.70;99.90
11320;DHT22;5715;48.234;14.320;2023-01-10T16:44:45;4.70;99.90
11320;DHT22;5715;48.234;14.320;2023-01-10T16:47:32;4.70;99.90
11320;DHT22;5715;48.234;14.320;2023-01-10T16:50:20;4.70;99.90
11320;DHT22;5715;48.234;14.320;2023-01-10T16:53:16;4.70;99.90
11320;DHT22;5715;48.234;14.320;2023-01-10T16:56:04;4.70;99.90
11320;DHT22;5715;48.234;14.320;2023-01-10T16:58:53;4.80;99.90
11320;DHT22;5715;48.234;14.320;2023-01-10T17:01:48;4.80;99.90
11320;DHT22;5715;48.234;14.320;2023-01-10T17:04:38;4.70;99.90
11320;DHT22;5715;48.234;14.320;2023-01-10T17:07:26;4.70;99.90
11320;DHT22;5715;48.234;14.320;2023-01-10T17:10:13;4.70;99.90
11320;DHT22;5715;48.234;14.320;2023-01-10T17:13:02;4.70;99.90
11320;DHT22;5715;48.234;14.320;2023-01-10T17:15:50;4.60;99.90
11320;DHT22;5715;48.234;14.320;2023-01-10T17:18:38;4.60;99.90
11320;DHT22;5715;48.234;14.320;2023-01-10T17:21:26;4.60;99.90
11320;DHT22;5715;48.234;14.320;2023-01-10T17:24:13;4.50;99.90
11320;DHT22;5715;48.234;14.320;2023-01-10T17:27:01;4.50;99.90
11320;DHT22;5715;48.234;14.320;2023-01-10T17:29:49;4.40;99.90
11320;DHT22;5715;48.234;14.320;2023-01-10T17:32:37;4.50;99.90
11320;DHT22;5715;48.234;14.320;2023-01-10T17:35:24;4.40;99.90
11320;DHT22;5715;48.234;14.320;2023-01-10T17:38:18;4.30;99.90
11320;DHT22;5715;48.234;14.320;2023-01-10T17:41:07;4.30;99.90
11320;DHT22;5715;48.234;14.320;2023-01-10T17:43:56;4.20;99.90
11320;DHT22;5715;48.234;14.320;2023-01-10T17:46:43;4.20;99.90
11320;DHT22;5715;48.234;14.320;2023-01-10T17:49:31;4.10;99.90
11320;DHT22;5715;48.234;14.320;2023-01-10T17:52:19;4.10;99.90
11320;DHT22;5715;48.234;14.320;2023-01-10T17:55:07;4.10;99.90
11320;DHT22;5715;48.234;14.320;2023-01-10T17:57:54;4.00;99.90
11320;DHT22;5715;48.234;14.320;2023-01-10T18:00:43;4.00;99.90
11320;DHT22;5715;48.234;14.320;2023-01-10T18:03:32;4.00;99.90
11320;DHT22;5715;48.234;14.320;2023-01-10T18:06:21;4.00;99.90
11320;DHT22;5715;48.234;14.320;2023-01-10T18:09:11;4.00;99.90
11320;DHT22;5715;48.234;14.320;2023-01-10T18:11:59;4.00;99.90
11320;DHT22;5715;48.234;14.320;2023-01-10T18:14:46;4.00;99.90
11320;DHT22;5715;48.234;14.320;2023-01-10T18:17:35;4.00;99.90
11320;DHT22;5715;48.234;14.320;2023-01-10T18:20:23;4.10;99.90
11320;DHT22;5715;48.234;14.320;2023-01-10T18:23:14;4.10;99.90
11320;DHT22;5715;48.234;14.320;2023-01-10T18:26:13;4.10;99.90
11320;DHT22;5715;48.234;14.320;2023-01-10T18:29:00;4.10;99.90
11320;DHT22;5715;48.234;14.320;2023-01-10T18:31:48;4.20;99.90
11320;DHT22;5715;48.234;14.320;2023-01-10T18:34:36;4.10;99.90
11320;DHT22;5715;48.234;14.320;2023-01-10T18:37:23;4.10;99.90
11320;DHT22;5715;48.234;14.320;2023-01-10T18:40:11;4.10;99.90
11320;DHT22;5715;48.234;14.320;2023-01-10T18:42:59;4.20;99.90
11320;DHT22;5715;48.234;14.320;2023-01-10T18:45:47;4.20;99.90
11320;DHT22;5715;48.234;14.320;2023-01-10T18:48:35;4.20;99.90
11320;DHT22;5715;48.234;14.320;2023-01-10T18:51:23;4.20;99.90
11320;DHT22;5715;48.234;14.320;2023-01-10T18:54:11;4.20;99.90
11320;DHT22;5715;48.234;14.320;2023-01-10T18:56:59;4.20;99.90
11320;DHT22;5715;48.234;14.320;2023-01-10T18:59:47;4.20;99.90
11320;DHT22;5715;48.234;14.320;2023-01-10T19:02:34;4.20;99.90
11320;DHT22;5715;48.234;14.320;2023-01-10T19:05:22;4.20;99.90
11320;DHT22;5715;48.234;14.320;2023-01-10T19:08:10;4.10;99.90
11320;DHT22;5715;48.234;14.320;2023-01-10T19:10:59;4.10;99.90
11320;DHT22;5715;48.234;14.320;2023-01-10T19:14:03;4.10;99.90
11320;DHT22;5715;48.234;14.320;2023-01-10T19:16:51;4.10;99.90
11320;DHT22;5715;48.234;14.320;2023-01-10T19:19:39;4.00;99.90
11320;DHT22;5715;48.234;14.320;2023-01-10T19:22:26;4.00;99.90
11320;DHT22;5715;48.234;14.320;2023-01-10T19:25:14;4.00;99.90
11320;DHT22;5715;48.234;14.320;2023-01-10T19:28:02;3.90;99.90
11320;DHT22;5715;48.234;14.320;2023-01-10T19:30:51;3.90;99.90
11320;DHT22;5715;48.234;14.320;2023-01-10T19:33:51;3.80;99.90
11320;DHT22;5715;48.234;14.320;2023-01-10T19:36:39;3.70;99.90
11320;DHT22;5715;48.234;14.320;2023-01-10T19:39:27;3.70;99.90
11320;DHT22;5715;48.234;14.320;2023-01-10T19:42:15;3.60;99.90
11320;DHT22;5715;48.234;14.320;2023-01-10T19:45:04;3.60;99.90
11320;DHT22;5715;48.234;14.320;2023-01-10T19:47:52;3.60;99.90
11320;DHT22;5715;48.234;14.320;2023-01-10T19:50:40;3.60;99.90
11320;DHT22;5715;48.234;14.320;2023-01-10T19:53:28;3.70;99.90
11320;DHT22;5715;48.234;14.320;2023-01-10T19:56:16;3.60;99.90
11320;DHT22;5715;48.234;14.320;2023-01-10T19:59:08;3.60;99.90
11320;DHT22;5715;48.234;14.320;2023-01-10T20:01:56;3.70;99.90